Flight Track Log - Related Links

Times and Time Zones

All times are in EDT time to prevent confusion due to time zone crossing. See the N819NN flight status page for this flight to view local times or setup timezone preferences in your user account.

Time Position Orientation Groundspeed Altitude Reporting Facility
EDT Latitude Longitude Course Direction KTS MPH feet Rate Location/Type
Wed 11:01:15 AM 32.8664 -97.0318 North  Level FlightAware Approximate
Wed 11:01:48 AM 32.8733 -97.0317 178° South 170 196 1,700  Level FAA TRACON SMA TRACON (SMA)
Wed 11:02:29 AM 32.8392 -97.0306 179° South 181 208 2,500 1,500 Climbing FAA TRACON SMA TRACON (SMA)
Wed 11:03:08 AM 32.7967 -97.0294 180° South 228 262 3,700 1,823 Climbing FAA TRACON SMA TRACON (SMA)
Wed 11:03:48 AM 32.7550 -97.0294 165° South 244 281 4,900 1,852 Climbing FAA TRACON SMA TRACON (SMA)
Wed 11:04:29 AM 32.7086 -97.0147 105° East 268 308 6,200 1,980 Climbing FAA TRACON SMA TRACON (SMA)
Wed 11:05:28 AM 32.6878 -96.9236 84° East 295 339 8,200 2,182 Climbing FAA TRACON SMA TRACON (SMA)
Wed 11:06:08 AM 32.6939 -96.8525 87° East 310 357 9,800 2,200 Climbing FAA TRACON SMA TRACON (SMA)
Wed 11:06:28 AM 32.6950 -96.8233 84° East 304 350 10,400 1,350 Climbing FAA TRACON SMA TRACON (SMA)
Wed 11:06:48 AM 32.6981 -96.7900 81° East 315 362 10,700 1,950 Climbing FAA TRACON SMA TRACON (SMA)
Wed 11:07:08 AM 32.7039 -96.7475 79° East 335 386 11,700 2,850 Climbing FAA TRACON SMA TRACON (SMA)
Wed 11:07:28 AM 32.7094 -96.7131 82° East 342 394 12,600 2,550 Climbing FAA TRACON SMA TRACON (SMA)
Wed 11:07:48 AM 32.7136 -96.6789 79° East 343 395 13,400 2,634 Climbing FAA TRACON SMA TRACON (SMA)
Wed 11:08:09 AM 32.7206 -96.6353 79° East 347 399 14,400 2,341 Climbing FAA TRACON SMA TRACON (SMA)
Wed 11:08:29 AM 32.7264 -96.5992 81° East 354 407 15,000 2,250 Climbing FAA TRACON SMA TRACON (SMA)
Wed 11:08:49 AM 32.7325 -96.5533 80° East 366 421 15,900 2,550 Climbing FAA TRACON SMA TRACON (SMA)
Wed 11:09:09 AM 32.7381 -96.5156 80° East 373 429 16,700 2,400 Climbing FAA TRACON SMA TRACON (SMA)
Wed 11:09:29 AM 32.7436 -96.4775 80° East 378 435 17,500 2,850 Climbing FAA TRACON SMA TRACON (SMA)
Wed 11:09:49 AM 32.7506 -96.4294 81° East 382 440 18,600 2,700 Climbing FAA TRACON SMA TRACON (SMA)
Wed 11:10:09 AM 32.7558 -96.3908 93° East 384 442 19,300 2,375 Climbing FAA TRACON SMA TRACON (SMA)
Wed 11:11:25 AM 32.7488 -96.2211 91° East 404 465 22,400 2,250 Climbing FlightAware ADS-B
Wed 11:12:09 AM 32.7473 -96.1235 92° East 415 478 23,800 1,280 Climbing FlightAware ADS-B
Wed 11:12:40 AM 32.7457 -96.0519 92° East 422 486 24,000 197 Climbing FlightAware ADS-B
Wed 11:13:10 AM 32.7441 -95.9818 91° East 421 484 24,000  Level FlightAware ADS-B
Wed 11:13:58 AM 32.7417 -95.8712 91° East 418 481 24,000  Level FlightAware ADS-B
Wed 11:14:29 AM 32.7401 -95.7995 91° East 417 480 24,000 640 Level FlightAware ADS-B
Wed 11:15:13 AM 32.7379 -95.6995 91° East 423 487 24,800 1,291 Climbing FlightAware ADS-B
Wed 11:15:48 AM 32.7361 -95.6177 92° East 429 494 25,700 1,744 Climbing FlightAware ADS-B
Wed 11:16:39 AM 32.7330 -95.4947 91° East 435 501 27,300 1,610 Climbing FlightAware ADS-B
Wed 11:17:10 AM 32.7322 -95.4403 92° East 433 498 27,900 1,426 Climbing Fort Worth Center
Wed 11:18:20 AM 32.7266 -95.2463 92° East 455 524 29,700 1,588 Climbing FlightAware ADS-B
Wed 11:18:52 AM 32.7243 -95.1671 92° East 455 524 30,600 1,676 Climbing FlightAware ADS-B
Wed 11:19:28 AM 32.7212 -95.0762 92° East 453 521 31,600 1,612 Climbing FlightAware ADS-B
Wed 11:19:59 AM 32.7189 -95.0008 92° East 452 520 32,400 1,562 Climbing FlightAware ADS-B
Wed 11:20:41 AM 32.7160 -94.8965 93° East 449 517 33,500 1,457 Climbing FlightAware ADS-B
Wed 11:21:09 AM 32.7128 -94.8285 102° East 448 516 34,100 982 Climbing FlightAware ADS-B
Wed 11:21:36 AM 32.7011 -94.7635 109° East 450 518 34,400 769 Climbing FlightAware ADS-B
Wed 11:21:48 AM 32.6933 -94.7368 112° Southeast 452 520 34,600 714 Climbing FlightAware ADS-B
Wed 11:22:18 AM 32.6697 -94.6672 112° Southeast 457 526 34,900 369 Climbing FlightAware ADS-B
Wed 11:22:53 AM 32.6417 -94.5849 112° Southeast 464 534 35,000 92 Climbing FlightAware ADS-B
Wed 11:23:23 AM 32.6172 -94.5140 112° Southeast 464 534 35,000  Level FlightAware ADS-B
Wed 11:24:40 AM 32.5560 -94.3331 112° Southeast 463 533 35,000  Level FlightAware ADS-B
Wed 11:25:11 AM 32.5308 -94.2598 112° Southeast 464 534 35,000  Level FlightAware ADS-B
Wed 11:25:54 AM 32.4958 -94.1587 112° Southeast 466 536 35,000  Level FlightAware ADS-B
Wed 11:26:26 AM 32.4699 -94.0837 112° Southeast 466 536 35,000  Level FlightAware ADS-B
Wed 11:27:01 AM 32.4413 -94.0014 112° Southeast 467 537 35,000  Level FlightAware ADS-B
Wed 11:27:31 AM 32.4167 -93.9305 112° Southeast 468 539 35,000  Level FlightAware ADS-B
Wed 11:28:01 AM 32.3920 -93.8589 112° Southeast 469 540 35,000  Level FlightAware ADS-B
Wed 11:28:41 AM 32.3588 -93.7635 113° Southeast 469 540 35,000  Level FlightAware ADS-B
Wed 11:30:06 AM 32.2956 -93.5875 113° Southeast 453 521 35,000  Level Houston Center
Wed 11:31:06 AM 32.2456 -93.4469 112° Southeast 465 535 35,000  Level Houston Center
Wed 11:32:06 AM 32.1972 -93.3061 113° Southeast 465 535 35,000  Level Houston Center
Wed 11:33:06 AM 32.1467 -93.1631 113° Southeast 465 535 35,000  Level Houston Center
Wed 11:34:06 AM 32.0961 -93.0203 114° Southeast 465 535 35,000  Level Houston Center
Wed 11:35:06 AM 32.0433 -92.8778 113° Southeast 465 535 35,000 -50 Level Houston Center
Wed 11:36:06 AM 31.9944 -92.7400 111° Southeast 465 535 34,900  Descending Houston Center
Wed 11:37:06 AM 31.9475 -92.5928 106° East 465 535 35,000 43 Climbing Houston Center
Wed 11:38:25 AM 31.8930 -92.3763 108° East 469 540 35,000  Level FlightAware ADS-B
Wed 11:39:06 AM 31.8722 -92.3014 106° East 465 535 35,000  Level Houston Center
Wed 11:40:06 AM 31.8372 -92.1619 101° East 460 529 35,000  Level Houston Center
Wed 11:41:15 AM 31.8034 -91.9601 101° East 464 534 35,000  Level FlightAware ADS-B
Wed 11:41:49 AM 31.7893 -91.8739 102° East 463 533 35,000  Level FlightAware ADS-B
Wed 11:42:06 AM 31.7839 -91.8442 101° East 466 536 35,000  Level Houston Center
Wed 11:43:32 AM 31.7475 -91.6198 101° East 463 533 35,000  Level FlightAware ADS-B
Wed 11:44:56 AM 31.7130 -91.4133 101° East 463 533 35,000  Level FlightAware ADS-B
Wed 11:46:06 AM 31.6853 -91.2514 100° East 466 536 35,000  Level Houston Center
Wed 11:47:06 AM 31.6639 -91.1050 103° East 466 536 35,000  Level Houston Center
Wed 11:48:06 AM 31.6383 -90.9711 101° East 466 536 35,000  Level Houston Center
Wed 11:49:06 AM 31.6144 -90.8228 100° East 461 531 35,000  Level Houston Center
Wed 11:50:06 AM 31.5928 -90.6792 101° East 461 531 35,000  Level Houston Center
Wed 11:51:06 AM 31.5686 -90.5308 100° East 461 531 35,000  Level Houston Center
Wed 11:52:06 AM 31.5464 -90.3872 100° East 456 525 35,000  Level Houston Center
Wed 11:53:06 AM 31.5242 -90.2439 100° East 456 525 35,000 -50 Level Houston Center
Wed 11:54:06 AM 31.5017 -90.0958 101° East 456 525 34,900 -50 Descending Houston Center
Wed 11:55:06 AM 31.4769 -89.9525 99° East 451 519 34,900  Level Houston Center
Wed 11:56:06 AM 31.4564 -89.8069 101° East 446 513 34,900 50 Level Houston Center
Wed 11:57:06 AM 31.4311 -89.6542 99° East 446 513 35,000 50 Climbing Houston Center
Wed 11:58:06 AM 31.4100 -89.5061 80° East 446 513 35,000  Level Houston Center
Wed 11:59:06 AM 31.4306 -89.3622 78° East 439 505 35,000  Level Houston Center
Wed 12:00:06 PM 31.4572 -89.2156 78° East 445 512 35,000  Level Houston Center
Wed 12:01:06 PM 31.4836 -89.0689 80° East 450 518 35,000  Level Houston Center
Wed 12:02:06 PM 31.5058 -88.9200 81° East 455 524 35,000  Level Houston Center
Wed 12:03:06 PM 31.5256 -88.7683 88° East 461 531 35,000  Level Houston Center
Wed 12:04:06 PM 31.5306 -88.6172 92° East 466 536 35,000  Level Houston Center
Wed 12:05:06 PM 31.5269 -88.4639 100° East 466 536 35,000  Level Houston Center
Wed 12:06:06 PM 31.5047 -88.3139 100° East 461 531 35,000  Level Houston Center
Wed 12:07:06 PM 31.4819 -88.1639 100° East 461 531 35,000  Level Houston Center
Wed 12:09:34 PM 31.4247 -87.7881 100° East 465 535 35,000  Level Jacksonville Center
Wed 12:10:34 PM 31.4014 -87.6361 100° East 471 542 35,000  Level Jacksonville Center
Wed 12:11:34 PM 31.3778 -87.4864 101° East 471 542 35,000  Level Jacksonville Center
Wed 12:12:34 PM 31.3539 -87.3369 101° East 471 542 35,000  Level Jacksonville Center
Wed 12:13:34 PM 31.3297 -87.1850 101° East 471 542 35,000  Level Jacksonville Center
Wed 12:14:34 PM 31.3056 -87.0333 103° East 471 542 35,000  Level Jacksonville Center
Wed 12:15:34 PM 31.2769 -86.8836 102° East 465 535 35,000  Level Jacksonville Center
Wed 12:16:34 PM 31.2503 -86.7344 101° East 470 541 35,000  Level Jacksonville Center
Wed 12:17:34 PM 31.2256 -86.5828 100° East 470 541 35,000  Level Jacksonville Center
Wed 12:18:34 PM 31.2028 -86.4314 102° East 470 541 35,000  Level Jacksonville Center
Wed 12:19:34 PM 31.1775 -86.2872 101° East 465 535 35,000  Level Jacksonville Center
Wed 12:20:34 PM 31.1522 -86.1333 102° East 471 542 35,000  Level Jacksonville Center
Wed 12:21:34 PM 31.1267 -85.9917 101° East 464 534 35,000  Level Jacksonville Center
Wed 12:22:34 PM 31.1008 -85.8428 99° East 458 527 35,000 -50 Level Jacksonville Center
Wed 12:23:34 PM 31.0811 -85.7014 102° East 453 521 34,900  Descending Jacksonville Center
Wed 12:24:34 PM 31.0550 -85.5575 102° East 453 521 35,000 50 Climbing Jacksonville Center
Wed 12:25:34 PM 31.0286 -85.4114 101° East 447 514 35,000  Level Jacksonville Center
Wed 12:26:34 PM 31.0044 -85.2678 102° East 453 521 35,000  Level Jacksonville Center
Wed 12:27:34 PM 30.9778 -85.1242 101° East 453 521 35,000  Level Jacksonville Center
Wed 12:28:34 PM 30.9531 -84.9806 102° East 448 516 35,000  Level Jacksonville Center
Wed 12:29:34 PM 30.9261 -84.8372 102° East 448 516 35,000  Level Jacksonville Center
Wed 12:30:34 PM 30.9011 -84.6964 86° East 448 516 35,000  Level Jacksonville Center
Wed 12:31:34 PM 30.9092 -84.5486 85° East 448 516 35,000  Level Jacksonville Center
Wed 12:32:34 PM 30.9194 -84.4061 86° East 442 509 35,000  Level Jacksonville Center
Wed 12:33:34 PM 30.9272 -84.2633 86° East 437 503 35,000  Level Jacksonville Center
Wed 12:34:34 PM 30.9350 -84.1231 87° East 437 503 35,000  Level Jacksonville Center
Wed 12:35:34 PM 30.9406 -83.9800 112° Southeast 442 509 35,000  Level Jacksonville Center
Wed 12:36:34 PM 30.8914 -83.8417 115° Southeast 437 503 35,000  Level Jacksonville Center
Wed 12:37:34 PM 30.8381 -83.7103 114° Southeast 437 503 35,000  Level Jacksonville Center
Wed 12:38:34 PM 30.7886 -83.5817 113° Southeast 437 503 35,000 -100 Level Jacksonville Center
Wed 12:39:34 PM 30.7456 -83.4656 114° Southeast 437 503 34,800 -1,600 Descending Jacksonville Center
Wed 12:40:34 PM 30.6939 -83.3297 114° Southeast 442 509 31,800 -2,950 Descending Jacksonville Center
Wed 12:41:34 PM 30.6442 -83.1992 120° Southeast 447 514 28,900 -2,400 Descending Jacksonville Center
Wed 12:42:34 PM 30.5817 -83.0736 138° Southeast 440 506 27,000 -950 Descending Jacksonville Center
Wed 12:43:34 PM 30.4919 -82.9794 139° Southeast 433 498 27,000 -200 Level Jacksonville Center
Wed 12:44:34 PM 30.4003 -82.8878 138° Southeast 428 493 26,600 -700 Descending Jacksonville Center
Wed 12:45:34 PM 30.3125 -82.7964 139° Southeast 433 498 25,600 -850 Descending Jacksonville Center
Wed 12:46:34 PM 30.2247 -82.7075 140° Southeast 423 487 24,900 -300 Descending Jacksonville Center
Wed 12:47:34 PM 30.1347 -82.6211 138° Southeast 423 487 25,000 50 Climbing Jacksonville Center
Wed 12:48:34 PM 30.0467 -82.5303 141° Southeast 423 487 25,000  Level Jacksonville Center
Wed 12:49:34 PM 29.9589 -82.4492 163° South 418 481 25,000 -50 Level Jacksonville Center
Wed 12:50:34 PM 29.8481 -82.4089 162° South 410 472 24,900 -950 Descending Jacksonville Center
Wed 12:51:34 PM 29.7394 -82.3689 163° South 410 472 23,100 -2,000 Descending Jacksonville Center
Wed 12:52:34 PM 29.6347 -82.3311 157° South 410 472 20,900 -1,800 Descending Jacksonville Center
Wed 12:53:34 PM 29.5261 -82.2792 154° Southeast 398 458 19,500 -1,350 Descending Jacksonville Center
Wed 12:54:34 PM 29.4317 -82.2272 156° South 386 444 18,200 -1,200 Descending Jacksonville Center
Wed 12:55:34 PM 29.3375 -82.1781 153° Southeast 374 430 17,100 -1,150 Descending Jacksonville Center
Wed 12:56:34 PM 29.2475 -82.1261 156° South 374 430 15,900 -1,200 Descending Jacksonville Center
Wed 12:57:34 PM 29.1594 -82.0817 155° Southeast 363 418 14,700 -1,150 Descending Jacksonville Center
Wed 12:58:34 PM 29.0717 -82.0350 154° Southeast 358 412 13,600 -1,100 Descending Jacksonville Center
Wed 12:59:34 PM 28.9919 -81.9906 155° Southeast 346 398 12,500 -1,050 Descending Jacksonville Center
Wed 01:00:34 PM 28.9186 -81.9508 143° Southeast 319 367 11,500 -750 Descending Jacksonville Center
Wed 01:01:34 PM 28.8619 -81.9017 106° East 280 322 11,000 -500 Descending Jacksonville Center
Wed 01:02:34 PM 28.8447 -81.8331 104° East 226 260 10,500 -1,000 Descending Jacksonville Center
Wed 01:03:34 PM 28.8294 -81.7622 106° East 221 254 9,000 -750 Descending Jacksonville Center
Wed 01:04:34 PM 28.8142 -81.7006 100° East 221 254 9,000  Level Jacksonville Center
Wed 01:05:34 PM 28.8031 -81.6297 105° East 221 254 9,000 -100 Level Jacksonville Center
Wed 01:06:34 PM 28.7858 -81.5589 115° Southeast 221 254 8,800 -850 Descending Jacksonville Center
Wed 01:07:34 PM 28.7600 -81.4953 122° Southeast 221 254 7,300 -1,478 Descending Jacksonville Center
Wed 01:08:52 PM 28.7167 -81.4167 139° Southeast 226 260 5,400 -1,391 Descending Orlando TRACON
Wed 01:09:52 PM 28.6667 -81.3667 168° South 217 250 4,100 -1,100 Descending Orlando TRACON
Wed 01:10:52 PM 28.6000 -81.3500 168° South 207 238 3,200 -900 Descending Orlando TRACON

Login

Don't have an account? Register now (free) for customized features, flight alerts, and more!